sensor_id;sensor_type;location;lat;lon;timestamp;P1;durP1;ratioP1;P2;durP2;ratioP2
51332;SDS011;37417;48.118;11.734;2022-12-20T00:00:10;3.75;;;2.20;;
51332;SDS011;37417;48.118;11.734;2022-12-20T00:02:56;4.07;;;2.63;;
51332;SDS011;37417;48.118;11.734;2022-12-20T00:05:42;4.28;;;3.00;;
51332;SDS011;37417;48.118;11.734;2022-12-20T00:08:28;4.65;;;2.97;;
51332;SDS011;37417;48.118;11.734;2022-12-20T00:11:13;3.97;;;2.70;;
51332;SDS011;37417;48.118;11.734;2022-12-20T00:13:59;4.40;;;2.72;;
51332;SDS011;37417;48.118;11.734;2022-12-20T00:16:44;4.30;;;2.53;;
51332;SDS011;37417;48.118;11.734;2022-12-20T00:19:30;6.20;;;2.42;;
51332;SDS011;37417;48.118;11.734;2022-12-20T00:22:15;4.95;;;3.13;;
51332;SDS011;37417;48.118;11.734;2022-12-20T00:25:01;3.75;;;2.45;;
51332;SDS011;37417;48.118;11.734;2022-12-20T00:27:47;4.32;;;2.60;;
51332;SDS011;37417;48.118;11.734;2022-12-20T00:30:32;6.38;;;3.13;;
51332;SDS011;37417;48.118;11.734;2022-12-20T00:33:19;2.53;;;2.15;;
51332;SDS011;37417;48.118;11.734;2022-12-20T00:36:05;4.57;;;2.60;;
51332;SDS011;37417;48.118;11.734;2022-12-20T00:38:52;5.45;;;3.25;;
51332;SDS011;37417;48.118;11.734;2022-12-20T00:41:38;6.15;;;2.97;;
51332;SDS011;37417;48.118;11.734;2022-12-20T00:44:23;3.33;;;1.98;;
51332;SDS011;37417;48.118;11.734;2022-12-20T00:47:09;4.60;;;3.13;;
51332;SDS011;37417;48.118;11.734;2022-12-20T00:49:54;3.85;;;2.30;;
51332;SDS011;37417;48.118;11.734;2022-12-20T00:52:40;5.50;;;2.42;;
51332;SDS011;37417;48.118;11.734;2022-12-20T00:55:25;4.00;;;2.92;;
51332;SDS011;37417;48.118;11.734;2022-12-20T00:58:11;3.70;;;2.30;;
51332;SDS011;37417;48.118;11.734;2022-12-20T01:00:57;3.85;;;2.33;;
51332;SDS011;37417;48.118;11.734;2022-12-20T01:03:42;5.07;;;2.65;;
51332;SDS011;37417;48.118;11.734;2022-12-20T01:06:28;3.28;;;2.17;;
51332;SDS011;37417;48.118;11.734;2022-12-20T01:09:14;5.15;;;2.20;;
51332;SDS011;37417;48.118;11.734;2022-12-20T01:12:00;3.83;;;2.72;;
51332;SDS011;37417;48.118;11.734;2022-12-20T01:14:45;2.78;;;1.98;;
51332;SDS011;37417;48.118;11.734;2022-12-20T01:17:31;3.63;;;2.47;;
51332;SDS011;37417;48.118;11.734;2022-12-20T01:20:17;5.28;;;2.40;;
51332;SDS011;37417;48.118;11.734;2022-12-20T01:23:02;4.20;;;2.55;;
51332;SDS011;37417;48.118;11.734;2022-12-20T01:25:49;2.80;;;1.85;;
51332;SDS011;37417;48.118;11.734;2022-12-20T01:28:35;3.30;;;2.45;;
51332;SDS011;37417;48.118;11.734;2022-12-20T01:31:21;3.45;;;2.30;;
51332;SDS011;37417;48.118;11.734;2022-12-20T01:34:07;5.80;;;2.30;;
51332;SDS011;37417;48.118;11.734;2022-12-20T01:36:53;4.40;;;2.33;;
51332;SDS011;37417;48.118;11.734;2022-12-20T01:39:38;5.28;;;2.78;;
51332;SDS011;37417;48.118;11.734;2022-12-20T01:42:24;2.60;;;2.08;;
51332;SDS011;37417;48.118;11.734;2022-12-20T01:45:12;4.18;;;2.40;;
51332;SDS011;37417;48.118;11.734;2022-12-20T01:47:59;2.85;;;2.08;;
51332;SDS011;37417;48.118;11.734;2022-12-20T01:50:45;3.80;;;2.10;;
51332;SDS011;37417;48.118;11.734;2022-12-20T01:53:30;3.55;;;1.85;;
51332;SDS011;37417;48.118;11.734;2022-12-20T01:56:16;3.05;;;2.10;;
51332;SDS011;37417;48.118;11.734;2022-12-20T01:59:02;3.00;;;1.77;;
51332;SDS011;37417;48.118;11.734;2022-12-20T02:01:48;4.60;;;2.17;;
51332;SDS011;37417;48.118;11.734;2022-12-20T02:04:33;5.05;;;2.55;;
51332;SDS011;37417;48.118;11.734;2022-12-20T02:07:20;4.57;;;2.00;;
51332;SDS011;37417;48.118;11.734;2022-12-20T02:10:08;3.97;;;1.98;;
51332;SDS011;37417;48.118;11.734;2022-12-20T02:12:57;5.75;;;1.77;;
51332;SDS011;37417;48.118;11.734;2022-12-20T02:15:50;3.25;;;1.95;;
51332;SDS011;37417;48.118;11.734;2022-12-20T02:18:39;3.90;;;2.15;;
51332;SDS011;37417;48.118;11.734;2022-12-20T02:21:32;7.95;;;2.53;;
51332;SDS011;37417;48.118;11.734;2022-12-20T02:24:35;3.20;;;1.77;;
51332;SDS011;37417;48.118;11.734;2022-12-20T02:32:56;2.75;;;2.03;;
51332;SDS011;37417;48.118;11.734;2022-12-20T02:35:43;4.50;;;1.90;;
51332;SDS011;37417;48.118;11.734;2022-12-20T02:38:30;3.10;;;1.73;;
51332;SDS011;37417;48.118;11.734;2022-12-20T02:41:23;2.67;;;1.85;;
51332;SDS011;37417;48.118;11.734;2022-12-20T02:44:11;2.05;;;1.60;;
51332;SDS011;37417;48.118;11.734;2022-12-20T02:47:20;3.13;;;1.83;;
51332;SDS011;37417;48.118;11.734;2022-12-20T02:50:07;2.58;;;1.77;;
51332;SDS011;37417;48.118;11.734;2022-12-20T02:52:53;1.85;;;1.33;;
51332;SDS011;37417;48.118;11.734;2022-12-20T02:55:45;2.17;;;1.40;;
51332;SDS011;37417;48.118;11.734;2022-12-20T02:58:32;3.05;;;1.80;;
51332;SDS011;37417;48.118;11.734;2022-12-20T03:01:20;2.10;;;1.23;;
51332;SDS011;37417;48.118;11.734;2022-12-20T03:04:07;2.05;;;1.77;;
51332;SDS011;37417;48.118;11.734;2022-12-20T03:07:00;1.75;;;1.48;;
51332;SDS011;37417;48.118;11.734;2022-12-20T03:09:46;2.67;;;1.98;;
51332;SDS011;37417;48.118;11.734;2022-12-20T03:12:32;3.00;;;1.67;;
51332;SDS011;37417;48.118;11.734;2022-12-20T03:15:17;4.07;;;2.20;;
51332;SDS011;37417;48.118;11.734;2022-12-20T03:18:03;2.22;;;1.65;;
51332;SDS011;37417;48.118;11.734;2022-12-20T03:20:49;3.75;;;2.20;;
51332;SDS011;37417;48.118;11.734;2022-12-20T03:23:34;3.63;;;1.77;;
51332;SDS011;37417;48.118;11.734;2022-12-20T03:26:20;2.72;;;2.00;;
51332;SDS011;37417;48.118;11.734;2022-12-20T03:29:06;2.38;;;1.42;;
51332;SDS011;37417;48.118;11.734;2022-12-20T03:31:51;2.15;;;1.75;;
51332;SDS011;37417;48.118;11.734;2022-12-20T03:34:37;3.40;;;2.05;;
51332;SDS011;37417;48.118;11.734;2022-12-20T03:37:22;2.40;;;2.13;;
51332;SDS011;37417;48.118;11.734;2022-12-20T03:40:08;1.38;;;1.00;;
51332;SDS011;37417;48.118;11.734;2022-12-20T03:42:54;5.00;;;1.75;;
51332;SDS011;37417;48.118;11.734;2022-12-20T03:45:39;1.58;;;1.48;;
51332;SDS011;37417;48.118;11.734;2022-12-20T03:48:25;4.07;;;2.10;;
51332;SDS011;37417;48.118;11.734;2022-12-20T03:51:10;2.03;;;1.50;;
51332;SDS011;37417;48.118;11.734;2022-12-20T03:53:56;2.25;;;1.55;;
51332;SDS011;37417;48.118;11.734;2022-12-20T03:56:41;1.90;;;1.38;;
51332;SDS011;37417;48.118;11.734;2022-12-20T03:59:27;3.20;;;1.58;;
51332;SDS011;37417;48.118;11.734;2022-12-20T04:02:12;2.20;;;1.33;;
51332;SDS011;37417;48.118;11.734;2022-12-20T04:04:58;3.72;;;1.25;;
51332;SDS011;37417;48.118;11.734;2022-12-20T04:07:43;6.63;;;1.10;;
51332;SDS011;37417;48.118;11.734;2022-12-20T04:10:29;2.78;;;1.60;;
51332;SDS011;37417;48.118;11.734;2022-12-20T04:13:15;1.70;;;1.40;;
51332;SDS011;37417;48.118;11.734;2022-12-20T04:16:00;1.98;;;1.33;;
51332;SDS011;37417;48.118;11.734;2022-12-20T04:18:46;2.60;;;1.30;;
51332;SDS011;37417;48.118;11.734;2022-12-20T04:21:32;2.55;;;1.73;;
51332;SDS011;37417;48.118;11.734;2022-12-20T04:24:17;1.33;;;1.23;;
51332;SDS011;37417;48.118;11.734;2022-12-20T04:27:03;2.15;;;1.52;;
51332;SDS011;37417;48.118;11.734;2022-12-20T04:29:49;2.80;;;1.63;;
51332;SDS011;37417;48.118;11.734;2022-12-20T04:32:34;1.90;;;1.15;;
51332;SDS011;37417;48.118;11.734;2022-12-20T04:35:20;2.65;;;1.70;;
51332;SDS011;37417;48.118;11.734;2022-12-20T04:38:05;2.30;;;1.80;;
51332;SDS011;37417;48.118;11.734;2022-12-20T04:40:51;2.03;;;1.63;;
51332;SDS011;37417;48.118;11.734;2022-12-20T04:43:37;2.15;;;1.25;;
51332;SDS011;37417;48.118;11.734;2022-12-20T04:46:23;2.63;;;1.67;;
51332;SDS011;37417;48.118;11.734;2022-12-20T04:49:09;5.28;;;1.52;;
51332;SDS011;37417;48.118;11.734;2022-12-20T04:51:55;2.78;;;1.83;;
51332;SDS011;37417;48.118;11.734;2022-12-20T04:55:00;2.25;;;1.35;;
51332;SDS011;37417;48.118;11.734;2022-12-20T04:57:46;2.50;;;1.52;;
51332;SDS011;37417;48.118;11.734;2022-12-20T05:00:31;2.17;;;1.63;;
51332;SDS011;37417;48.118;11.734;2022-12-20T05:03:20;2.30;;;1.70;;
51332;SDS011;37417;48.118;11.734;2022-12-20T05:06:06;5.05;;;1.70;;
51332;SDS011;37417;48.118;11.734;2022-12-20T05:08:52;2.05;;;1.50;;
51332;SDS011;37417;48.118;11.734;2022-12-20T05:11:39;3.47;;;1.40;;
51332;SDS011;37417;48.118;11.734;2022-12-20T05:14:25;2.80;;;1.92;;
51332;SDS011;37417;48.118;11.734;2022-12-20T05:17:10;2.30;;;1.35;;
51332;SDS011;37417;48.118;11.734;2022-12-20T05:19:56;3.42;;;1.80;;
51332;SDS011;37417;48.118;11.734;2022-12-20T05:22:41;1.85;;;1.40;;
51332;SDS011;37417;48.118;11.734;2022-12-20T05:25:47;4.55;;;1.52;;
51332;SDS011;37417;48.118;11.734;2022-12-20T05:28:51;2.80;;;1.35;;
51332;SDS011;37417;48.118;11.734;2022-12-20T05:31:37;2.58;;;1.75;;
51332;SDS011;37417;48.118;11.734;2022-12-20T05:34:22;2.63;;;2.17;;
51332;SDS011;37417;48.118;11.734;2022-12-20T05:37:08;2.60;;;1.55;;
51332;SDS011;37417;48.118;11.734;2022-12-20T05:39:53;4.68;;;1.33;;
51332;SDS011;37417;48.118;11.734;2022-12-20T05:42:39;2.63;;;1.45;;
51332;SDS011;37417;48.118;11.734;2022-12-20T05:45:24;2.78;;;1.60;;
51332;SDS011;37417;48.118;11.734;2022-12-20T05:48:10;2.30;;;1.65;;
51332;SDS011;37417;48.118;11.734;2022-12-20T05:50:55;3.70;;;1.38;;
51332;SDS011;37417;48.118;11.734;2022-12-20T05:53:41;3.50;;;1.42;;
51332;SDS011;37417;48.118;11.734;2022-12-20T05:56:27;2.88;;;1.83;;
51332;SDS011;37417;48.118;11.734;2022-12-20T05:59:12;3.38;;;1.42;;
51332;SDS011;37417;48.118;11.734;2022-12-20T06:01:58;1.05;;;0.95;;
51332;SDS011;37417;48.118;11.734;2022-12-20T06:04:44;3.65;;;1.40;;
51332;SDS011;37417;48.118;11.734;2022-12-20T06:07:29;1.33;;;1.08;;
51332;SDS011;37417;48.118;11.734;2022-12-20T06:10:16;2.22;;;1.20;;
51332;SDS011;37417;48.118;11.734;2022-12-20T06:13:02;1.77;;;1.20;;
51332;SDS011;37417;48.118;11.734;2022-12-20T06:15:48;3.70;;;1.65;;
51332;SDS011;37417;48.118;11.734;2022-12-20T06:18:33;1.23;;;1.02;;
51332;SDS011;37417;48.118;11.734;2022-12-20T06:21:19;2.25;;;1.33;;
51332;SDS011;37417;48.118;11.734;2022-12-20T06:24:04;1.50;;;1.00;;
51332;SDS011;37417;48.118;11.734;2022-12-20T06:26:50;1.90;;;1.10;;
51332;SDS011;37417;48.118;11.734;2022-12-20T06:29:36;2.85;;;1.60;;
51332;SDS011;37417;48.118;11.734;2022-12-20T06:32:22;1.42;;;1.15;;
51332;SDS011;37417;48.118;11.734;2022-12-20T06:35:07;1.85;;;1.13;;
51332;SDS011;37417;48.118;11.734;2022-12-20T06:37:53;2.15;;;0.93;;
51332;SDS011;37417;48.118;11.734;2022-12-20T06:40:39;3.35;;;1.35;;
51332;SDS011;37417;48.118;11.734;2022-12-20T06:43:24;3.42;;;1.30;;
51332;SDS011;37417;48.118;11.734;2022-12-20T06:46:10;2.00;;;1.27;;
51332;SDS011;37417;48.118;11.734;2022-12-20T06:48:55;2.42;;;1.20;;
51332;SDS011;37417;48.118;11.734;2022-12-20T06:51:41;4.55;;;1.73;;
51332;SDS011;37417;48.118;11.734;2022-12-20T06:54:27;1.70;;;1.10;;
51332;SDS011;37417;48.118;11.734;2022-12-20T06:57:12;2.97;;;1.80;;
51332;SDS011;37417;48.118;11.734;2022-12-20T06:59:58;6.38;;;1.75;;
51332;SDS011;37417;48.118;11.734;2022-12-20T07:02:43;2.25;;;1.60;;
51332;SDS011;37417;48.118;11.734;2022-12-20T07:05:29;2.33;;;1.60;;
51332;SDS011;37417;48.118;11.734;2022-12-20T07:08:15;6.30;;;1.08;;
51332;SDS011;37417;48.118;11.734;2022-12-20T07:11:04;1.73;;;1.25;;
51332;SDS011;37417;48.118;11.734;2022-12-20T07:13:54;4.07;;;1.40;;
51332;SDS011;37417;48.118;11.734;2022-12-20T07:16:40;3.17;;;1.40;;
51332;SDS011;37417;48.118;11.734;2022-12-20T07:19:27;1.92;;;1.42;;
51332;SDS011;37417;48.118;11.734;2022-12-20T07:22:13;2.30;;;1.65;;
51332;SDS011;37417;48.118;11.734;2022-12-20T07:24:58;2.08;;;1.10;;
51332;SDS011;37417;48.118;11.734;2022-12-20T07:27:48;2.33;;;1.30;;
51332;SDS011;37417;48.118;11.734;2022-12-20T07:30:36;2.15;;;1.40;;
51332;SDS011;37417;48.118;11.734;2022-12-20T07:33:22;0.75;;;0.73;;
51332;SDS011;37417;48.118;11.734;2022-12-20T07:36:10;1.45;;;1.17;;
51332;SDS011;37417;48.118;11.734;2022-12-20T07:38:56;2.75;;;1.00;;
51332;SDS011;37417;48.118;11.734;2022-12-20T07:41:42;1.15;;;0.90;;
51332;SDS011;37417;48.118;11.734;2022-12-20T07:44:27;1.42;;;1.08;;
51332;SDS011;37417;48.118;11.734;2022-12-20T07:47:13;1.48;;;1.20;;
51332;SDS011;37417;48.118;11.734;2022-12-20T07:49:58;1.05;;;0.85;;
51332;SDS011;37417;48.118;11.734;2022-12-20T07:52:44;3.88;;;1.15;;
51332;SDS011;37417;48.118;11.734;2022-12-20T07:55:31;2.70;;;1.13;;
51332;SDS011;37417;48.118;11.734;2022-12-20T07:58:16;0.60;;;0.60;;
51332;SDS011;37417;48.118;11.734;2022-12-20T08:01:03;1.75;;;1.10;;
51332;SDS011;37417;48.118;11.734;2022-12-20T08:03:50;2.08;;;1.25;;
51332;SDS011;37417;48.118;11.734;2022-12-20T08:06:37;2.95;;;1.15;;
51332;SDS011;37417;48.118;11.734;2022-12-20T08:09:24;1.80;;;1.17;;
51332;SDS011;37417;48.118;11.734;2022-12-20T08:12:13;1.83;;;1.17;;
51332;SDS011;37417;48.118;11.734;2022-12-20T08:14:59;1.05;;;0.82;;
51332;SDS011;37417;48.118;11.734;2022-12-20T08:17:45;2.08;;;1.17;;
51332;SDS011;37417;48.118;11.734;2022-12-20T08:20:31;1.23;;;0.93;;
51332;SDS011;37417;48.118;11.734;2022-12-20T08:23:16;1.20;;;0.90;;
51332;SDS011;37417;48.118;11.734;2022-12-20T08:26:02;1.52;;;1.10;;
51332;SDS011;37417;48.118;11.734;2022-12-20T08:28:47;2.92;;;1.38;;
51332;SDS011;37417;48.118;11.734;2022-12-20T08:31:37;1.95;;;1.23;;
51332;SDS011;37417;48.118;11.734;2022-12-20T08:34:23;2.30;;;1.52;;
51332;SDS011;37417;48.118;11.734;2022-12-20T08:37:08;2.42;;;1.98;;
51332;SDS011;37417;48.118;11.734;2022-12-20T08:39:54;2.03;;;1.45;;
51332;SDS011;37417;48.118;11.734;2022-12-20T08:42:39;3.28;;;1.45;;
51332;SDS011;37417;48.118;11.734;2022-12-20T08:45:25;6.00;;;1.50;;
51332;SDS011;37417;48.118;11.734;2022-12-20T08:48:10;3.53;;;1.77;;
51332;SDS011;37417;48.118;11.734;2022-12-20T08:50:57;3.15;;;1.63;;
51332;SDS011;37417;48.118;11.734;2022-12-20T08:53:43;1.95;;;1.42;;
51332;SDS011;37417;48.118;11.734;2022-12-20T08:56:28;1.67;;;1.10;;
51332;SDS011;37417;48.118;11.734;2022-12-20T08:59:14;4.45;;;1.35;;
51332;SDS011;37417;48.118;11.734;2022-12-20T09:01:59;1.50;;;1.17;;
51332;SDS011;37417;48.118;11.734;2022-12-20T09:04:45;4.00;;;1.83;;
51332;SDS011;37417;48.118;11.734;2022-12-20T09:07:31;3.28;;;1.70;;
51332;SDS011;37417;48.118;11.734;2022-12-20T09:10:17;2.75;;;1.33;;
51332;SDS011;37417;48.118;11.734;2022-12-20T09:13:03;2.15;;;1.45;;
51332;SDS011;37417;48.118;11.734;2022-12-20T09:15:49;3.10;;;1.83;;
51332;SDS011;37417;48.118;11.734;2022-12-20T09:18:34;2.03;;;1.25;;
51332;SDS011;37417;48.118;11.734;2022-12-20T09:21:20;2.05;;;1.50;;
51332;SDS011;37417;48.118;11.734;2022-12-20T09:24:05;2.17;;;1.52;;
51332;SDS011;37417;48.118;11.734;2022-12-20T09:26:51;2.92;;;1.58;;
51332;SDS011;37417;48.118;11.734;2022-12-20T09:29:37;2.50;;;1.40;;
51332;SDS011;37417;48.118;11.734;2022-12-20T09:32:22;2.08;;;1.50;;
51332;SDS011;37417;48.118;11.734;2022-12-20T09:35:08;4.78;;;1.52;;
51332;SDS011;37417;48.118;11.734;2022-12-20T09:37:54;3.45;;;1.52;;
51332;SDS011;37417;48.118;11.734;2022-12-20T09:40:43;1.88;;;1.30;;
51332;SDS011;37417;48.118;11.734;2022-12-20T09:43:29;2.50;;;1.83;;
51332;SDS011;37417;48.118;11.734;2022-12-20T09:46:16;2.33;;;1.80;;
51332;SDS011;37417;48.118;11.734;2022-12-20T09:51:54;2.22;;;1.40;;
51332;SDS011;37417;48.118;11.734;2022-12-20T09:54:48;6.15;;;2.10;;
51332;SDS011;37417;48.118;11.734;2022-12-20T10:00:22;2.58;;;1.58;;
51332;SDS011;37417;48.118;11.734;2022-12-20T10:03:11;3.55;;;1.52;;
51332;SDS011;37417;48.118;11.734;2022-12-20T10:05:58;1.90;;;1.30;;
51332;SDS011;37417;48.118;11.734;2022-12-20T10:08:55;6.78;;;2.00;;
51332;SDS011;37417;48.118;11.734;2022-12-20T10:11:44;3.08;;;1.63;;
51332;SDS011;37417;48.118;11.734;2022-12-20T10:14:43;5.35;;;2.05;;
51332;SDS011;37417;48.118;11.734;2022-12-20T10:17:40;3.08;;;2.20;;
51332;SDS011;37417;48.118;11.734;2022-12-20T10:23:36;3.58;;;2.30;;
51332;SDS011;37417;48.118;11.734;2022-12-20T10:26:24;2.35;;;1.90;;
51332;SDS011;37417;48.118;11.734;2022-12-20T10:29:10;2.65;;;1.88;;
51332;SDS011;37417;48.118;11.734;2022-12-20T10:31:57;3.38;;;1.65;;
51332;SDS011;37417;48.118;11.734;2022-12-20T10:34:46;1.98;;;1.63;;
51332;SDS011;37417;48.118;11.734;2022-12-20T10:37:35;2.92;;;1.67;;
51332;SDS011;37417;48.118;11.734;2022-12-20T10:40:28;3.08;;;1.80;;
51332;SDS011;37417;48.118;11.734;2022-12-20T10:43:15;3.92;;;2.40;;
51332;SDS011;37417;48.118;11.734;2022-12-20T10:46:05;6.35;;;2.40;;
51332;SDS011;37417;48.118;11.734;2022-12-20T10:48:51;3.58;;;1.95;;
51332;SDS011;37417;48.118;11.734;2022-12-20T10:51:36;2.67;;;1.13;;
51332;SDS011;37417;48.118;11.734;2022-12-20T10:54:44;2.58;;;1.58;;
51332;SDS011;37417;48.118;11.734;2022-12-20T10:57:28;3.00;;;2.00;;
51332;SDS011;37417;48.118;11.734;2022-12-20T11:00:26;3.25;;;1.60;;
51332;SDS011;37417;48.118;11.734;2022-12-20T11:03:17;4.68;;;1.70;;
51332;SDS011;37417;48.118;11.734;2022-12-20T11:06:11;2.03;;;1.70;;
51332;SDS011;37417;48.118;11.734;2022-12-20T11:14:49;2.05;;;1.65;;
51332;SDS011;37417;48.118;11.734;2022-12-20T11:17:35;3.95;;;1.80;;
51332;SDS011;37417;48.118;11.734;2022-12-20T11:23:17;2.78;;;1.67;;
51332;SDS011;37417;48.118;11.734;2022-12-20T11:35:31;3.45;;;1.83;;
51332;SDS011;37417;48.118;11.734;2022-12-20T11:38:33;2.70;;;1.55;;
51332;SDS011;37417;48.118;11.734;2022-12-20T11:49:47;1.65;;;1.23;;
51332;SDS011;37417;48.118;11.734;2022-12-20T11:52:45;2.53;;;1.70;;
51332;SDS011;37417;48.118;11.734;2022-12-20T11:55:33;3.05;;;1.98;;
51332;SDS011;37417;48.118;11.734;2022-12-20T12:01:13;3.05;;;1.83;;
51332;SDS011;37417;48.118;11.734;2022-12-20T12:04:04;2.20;;;1.38;;
51332;SDS011;37417;48.118;11.734;2022-12-20T12:06:56;3.33;;;1.90;;
51332;SDS011;37417;48.118;11.734;2022-12-20T12:09:59;3.95;;;1.23;;
51332;SDS011;37417;48.118;11.734;2022-12-20T12:12:46;2.10;;;1.55;;
51332;SDS011;37417;48.118;11.734;2022-12-20T12:15:38;2.72;;;2.03;;
51332;SDS011;37417;48.118;11.734;2022-12-20T12:18:32;2.00;;;1.40;;
51332;SDS011;37417;48.118;11.734;2022-12-20T12:21:20;7.18;;;2.03;;
51332;SDS011;37417;48.118;11.734;2022-12-20T12:27:27;4.97;;;1.60;;
51332;SDS011;37417;48.118;11.734;2022-12-20T12:30:13;3.08;;;2.40;;
51332;SDS011;37417;48.118;11.734;2022-12-20T12:32:59;2.83;;;1.98;;
51332;SDS011;37417;48.118;11.734;2022-12-20T12:38:59;2.63;;;1.85;;
51332;SDS011;37417;48.118;11.734;2022-12-20T12:47:47;3.70;;;2.03;;
51332;SDS011;37417;48.118;11.734;2022-12-20T12:50:36;2.47;;;1.65;;
51332;SDS011;37417;48.118;11.734;2022-12-20T13:13:20;3.90;;;2.20;;
51332;SDS011;37417;48.118;11.734;2022-12-20T13:16:08;3.05;;;2.17;;
51332;SDS011;37417;48.118;11.734;2022-12-20T13:18:55;3.20;;;2.60;;
51332;SDS011;37417;48.118;11.734;2022-12-20T13:21:42;3.22;;;1.83;;
51332;SDS011;37417;48.118;11.734;2022-12-20T13:24:39;3.80;;;2.58;;
51332;SDS011;37417;48.118;11.734;2022-12-20T13:27:34;4.70;;;3.20;;
51332;SDS011;37417;48.118;11.734;2022-12-20T13:30:23;6.10;;;3.38;;
51332;SDS011;37417;48.118;11.734;2022-12-20T13:33:19;3.75;;;2.83;;
51332;SDS011;37417;48.118;11.734;2022-12-20T13:38:57;5.55;;;3.25;;
51332;SDS011;37417;48.118;11.734;2022-12-20T13:41:44;6.70;;;3.55;;
51332;SDS011;37417;48.118;11.734;2022-12-20T13:44:35;7.03;;;3.58;;
51332;SDS011;37417;48.118;11.734;2022-12-20T13:50:26;6.18;;;3.42;;
51332;SDS011;37417;48.118;11.734;2022-12-20T13:53:16;6.75;;;4.38;;
51332;SDS011;37417;48.118;11.734;2022-12-20T13:59:24;4.57;;;3.90;;
51332;SDS011;37417;48.118;11.734;2022-12-20T14:02:18;4.47;;;3.28;;
51332;SDS011;37417;48.118;11.734;2022-12-20T14:05:12;7.20;;;4.30;;
51332;SDS011;37417;48.118;11.734;2022-12-20T14:08:06;5.95;;;4.07;;
51332;SDS011;37417;48.118;11.734;2022-12-20T14:10:52;5.80;;;4.00;;
51332;SDS011;37417;48.118;11.734;2022-12-20T14:13:38;7.45;;;4.53;;
51332;SDS011;37417;48.118;11.734;2022-12-20T14:16:25;6.32;;;4.05;;
51332;SDS011;37417;48.118;11.734;2022-12-20T14:19:13;5.65;;;4.10;;
51332;SDS011;37417;48.118;11.734;2022-12-20T14:21:59;4.53;;;3.90;;
51332;SDS011;37417;48.118;11.734;2022-12-20T14:24:45;5.38;;;3.72;;
51332;SDS011;37417;48.118;11.734;2022-12-20T14:27:32;5.93;;;4.10;;
51332;SDS011;37417;48.118;11.734;2022-12-20T14:30:25;7.10;;;4.32;;
51332;SDS011;37417;48.118;11.734;2022-12-20T14:33:24;9.20;;;4.53;;
51332;SDS011;37417;48.118;11.734;2022-12-20T14:39:00;7.30;;;4.43;;
51332;SDS011;37417;48.118;11.734;2022-12-20T14:45:00;5.35;;;4.38;;
51332;SDS011;37417;48.118;11.734;2022-12-20T14:47:50;7.57;;;4.25;;
51332;SDS011;37417;48.118;11.734;2022-12-20T14:50:38;10.48;;;4.90;;
51332;SDS011;37417;48.118;11.734;2022-12-20T14:53:27;12.75;;;4.53;;
51332;SDS011;37417;48.118;11.734;2022-12-20T14:56:14;9.38;;;4.30;;
51332;SDS011;37417;48.118;11.734;2022-12-20T14:59:02;8.88;;;4.72;;
51332;SDS011;37417;48.118;11.734;2022-12-20T15:01:49;6.80;;;4.68;;
51332;SDS011;37417;48.118;11.734;2022-12-20T15:04:36;5.85;;;4.13;;
51332;SDS011;37417;48.118;11.734;2022-12-20T15:07:28;6.97;;;4.68;;
51332;SDS011;37417;48.118;11.734;2022-12-20T15:10:13;6.97;;;4.97;;
51332;SDS011;37417;48.118;11.734;2022-12-20T15:12:59;9.30;;;5.57;;
51332;SDS011;37417;48.118;11.734;2022-12-20T15:15:45;11.73;;;5.30;;
51332;SDS011;37417;48.118;11.734;2022-12-20T15:18:30;7.13;;;4.53;;
51332;SDS011;37417;48.118;11.734;2022-12-20T15:21:27;10.77;;;5.72;;
51332;SDS011;37417;48.118;11.734;2022-12-20T15:24:14;7.13;;;5.00;;
51332;SDS011;37417;48.118;11.734;2022-12-20T15:27:01;8.27;;;4.82;;
51332;SDS011;37417;48.118;11.734;2022-12-20T15:29:46;9.00;;;5.47;;
51332;SDS011;37417;48.118;11.734;2022-12-20T15:32:32;7.05;;;5.10;;
51332;SDS011;37417;48.118;11.734;2022-12-20T15:35:18;7.95;;;4.65;;
51332;SDS011;37417;48.118;11.734;2022-12-20T15:38:03;11.55;;;5.55;;
51332;SDS011;37417;48.118;11.734;2022-12-20T15:40:50;8.45;;;5.60;;
51332;SDS011;37417;48.118;11.734;2022-12-20T15:43:37;8.75;;;5.57;;
51332;SDS011;37417;48.118;11.734;2022-12-20T15:46:23;10.65;;;5.40;;
51332;SDS011;37417;48.118;11.734;2022-12-20T15:49:11;8.10;;;5.82;;
51332;SDS011;37417;48.118;11.734;2022-12-20T15:51:58;6.35;;;4.70;;
51332;SDS011;37417;48.118;11.734;2022-12-20T15:54:43;7.90;;;5.40;;
51332;SDS011;37417;48.118;11.734;2022-12-20T15:57:29;10.95;;;6.10;;
51332;SDS011;37417;48.118;11.734;2022-12-20T16:00:15;10.98;;;6.25;;
51332;SDS011;37417;48.118;11.734;2022-12-20T16:03:00;8.98;;;5.63;;
51332;SDS011;37417;48.118;11.734;2022-12-20T16:05:47;10.65;;;5.93;;
51332;SDS011;37417;48.118;11.734;2022-12-20T16:08:32;10.20;;;5.65;;
51332;SDS011;37417;48.118;11.734;2022-12-20T16:11:22;9.65;;;5.57;;
51332;SDS011;37417;48.118;11.734;2022-12-20T16:14:15;10.15;;;5.55;;
51332;SDS011;37417;48.118;11.734;2022-12-20T16:17:00;9.38;;;5.65;;
51332;SDS011;37417;48.118;11.734;2022-12-20T16:19:46;9.65;;;5.68;;
51332;SDS011;37417;48.118;11.734;2022-12-20T16:22:32;8.82;;;5.68;;
51332;SDS011;37417;48.118;11.734;2022-12-20T16:25:21;13.73;;;6.47;;
51332;SDS011;37417;48.118;11.734;2022-12-20T16:28:07;8.90;;;5.95;;
51332;SDS011;37417;48.118;11.734;2022-12-20T16:30:53;12.27;;;6.78;;
51332;SDS011;37417;48.118;11.734;2022-12-20T16:33:39;12.35;;;6.78;;
51332;SDS011;37417;48.118;11.734;2022-12-20T16:36:24;11.52;;;7.20;;
51332;SDS011;37417;48.118;11.734;2022-12-20T16:39:10;11.50;;;7.50;;
51332;SDS011;37417;48.118;11.734;2022-12-20T16:41:56;13.27;;;7.10;;
51332;SDS011;37417;48.118;11.734;2022-12-20T16:44:42;12.02;;;6.78;;
51332;SDS011;37417;48.118;11.734;2022-12-20T16:47:28;11.07;;;6.72;;
51332;SDS011;37417;48.118;11.734;2022-12-20T16:50:14;11.65;;;6.50;;
51332;SDS011;37417;48.118;11.734;2022-12-20T16:53:00;13.20;;;7.95;;
51332;SDS011;37417;48.118;11.734;2022-12-20T16:55:46;9.10;;;6.25;;
51332;SDS011;37417;48.118;11.734;2022-12-20T16:58:31;18.05;;;8.20;;
51332;SDS011;37417;48.118;11.734;2022-12-20T17:01:17;9.45;;;6.97;;
51332;SDS011;37417;48.118;11.734;2022-12-20T17:04:04;16.67;;;9.70;;
51332;SDS011;37417;48.118;11.734;2022-12-20T17:06:50;13.20;;;8.38;;
51332;SDS011;37417;48.118;11.734;2022-12-20T17:09:35;19.40;;;9.00;;
51332;SDS011;37417;48.118;11.734;2022-12-20T17:12:21;13.95;;;9.13;;
51332;SDS011;37417;48.118;11.734;2022-12-20T17:15:20;15.23;;;8.02;;
51332;SDS011;37417;48.118;11.734;2022-12-20T17:18:07;14.98;;;8.30;;
51332;SDS011;37417;48.118;11.734;2022-12-20T17:20:52;12.30;;;7.35;;
51332;SDS011;37417;48.118;11.734;2022-12-20T17:23:38;12.02;;;7.10;;
51332;SDS011;37417;48.118;11.734;2022-12-20T17:26:24;12.95;;;7.55;;
51332;SDS011;37417;48.118;11.734;2022-12-20T17:29:10;10.77;;;7.63;;
51332;SDS011;37417;48.118;11.734;2022-12-20T17:31:56;11.75;;;7.78;;
51332;SDS011;37417;48.118;11.734;2022-12-20T17:34:41;11.50;;;7.07;;
51332;SDS011;37417;48.118;11.734;2022-12-20T17:37:27;11.95;;;7.68;;
51332;SDS011;37417;48.118;11.734;2022-12-20T17:40:13;11.00;;;7.20;;
51332;SDS011;37417;48.118;11.734;2022-12-20T17:42:59;12.10;;;7.63;;
51332;SDS011;37417;48.118;11.734;2022-12-20T17:45:45;11.30;;;7.50;;
51332;SDS011;37417;48.118;11.734;2022-12-20T17:48:31;13.68;;;7.75;;
51332;SDS011;37417;48.118;11.734;2022-12-20T17:51:18;18.17;;;7.72;;
51332;SDS011;37417;48.118;11.734;2022-12-20T17:54:04;11.32;;;6.97;;
51332;SDS011;37417;48.118;11.734;2022-12-20T17:56:49;14.52;;;6.82;;
51332;SDS011;37417;48.118;11.734;2022-12-20T17:59:35;9.30;;;6.90;;
51332;SDS011;37417;48.118;11.734;2022-12-20T18:02:22;10.05;;;6.72;;